sensor_id;sensor_type;location;lat;lon;timestamp;temperature;humidity
9223;DHT22;7557;51.698;3.942;2022-10-30T00:00:37;16.90;99.90
9223;DHT22;7557;51.698;3.942;2022-10-30T00:03:05;16.90;99.90
9223;DHT22;7557;51.698;3.942;2022-10-30T00:05:33;16.90;99.90
9223;DHT22;7557;51.698;3.942;2022-10-30T00:08:00;16.80;99.90
9223;DHT22;7557;51.698;3.942;2022-10-30T00:10:29;16.90;99.90
9223;DHT22;7557;51.698;3.942;2022-10-30T00:12:56;16.90;99.90
9223;DHT22;7557;51.698;3.942;2022-10-30T00:15:24;16.80;99.90
9223;DHT22;7557;51.698;3.942;2022-10-30T00:17:51;16.80;99.90
9223;DHT22;7557;51.698;3.942;2022-10-30T00:20:19;16.80;99.90
9223;DHT22;7557;51.698;3.942;2022-10-30T00:22:46;16.80;99.90
9223;DHT22;7557;51.698;3.942;2022-10-30T00:25:14;16.80;99.90
9223;DHT22;7557;51.698;3.942;2022-10-30T00:27:42;16.80;99.90
9223;DHT22;7557;51.698;3.942;2022-10-30T00:30:11;16.70;99.90
9223;DHT22;7557;51.698;3.942;2022-10-30T00:32:40;16.70;99.90
9223;DHT22;7557;51.698;3.942;2022-10-30T00:35:09;16.70;99.90
9223;DHT22;7557;51.698;3.942;2022-10-30T00:37:36;16.70;99.90
9223;DHT22;7557;51.698;3.942;2022-10-30T00:40:05;16.70;99.90
9223;DHT22;7557;51.698;3.942;2022-10-30T00:42:33;16.70;99.90
9223;DHT22;7557;51.698;3.942;2022-10-30T00:45:02;16.70;99.90
9223;DHT22;7557;51.698;3.942;2022-10-30T00:47:33;16.60;99.90
9223;DHT22;7557;51.698;3.942;2022-10-30T00:50:03;16.60;99.90
9223;DHT22;7557;51.698;3.942;2022-10-30T00:52:34;16.60;99.90
9223;DHT22;7557;51.698;3.942;2022-10-30T00:55:05;16.60;99.90
9223;DHT22;7557;51.698;3.942;2022-10-30T00:57:34;16.60;99.90
9223;DHT22;7557;51.698;3.942;2022-10-30T01:00:06;16.60;99.90
9223;DHT22;7557;51.698;3.942;2022-10-30T01:02:34;16.60;99.90
9223;DHT22;7557;51.698;3.942;2022-10-30T01:05:02;16.60;99.90
9223;DHT22;7557;51.698;3.942;2022-10-30T01:07:30;16.50;99.90
9223;DHT22;7557;51.698;3.942;2022-10-30T01:09:58;16.50;99.90
9223;DHT22;7557;51.698;3.942;2022-10-30T01:12:26;16.50;99.90
9223;DHT22;7557;51.698;3.942;2022-10-30T01:14:55;16.50;99.90
9223;DHT22;7557;51.698;3.942;2022-10-30T01:17:42;16.40;99.90
9223;DHT22;7557;51.698;3.942;2022-10-30T01:20:27;16.40;99.90
9223;DHT22;7557;51.698;3.942;2022-10-30T01:23:05;16.40;99.90
9223;DHT22;7557;51.698;3.942;2022-10-30T01:25:46;16.40;99.90
9223;DHT22;7557;51.698;3.942;2022-10-30T01:28:31;16.40;99.90
9223;DHT22;7557;51.698;3.942;2022-10-30T01:31:11;16.40;99.90
9223;DHT22;7557;51.698;3.942;2022-10-30T01:34:00;16.30;99.90
9223;DHT22;7557;51.698;3.942;2022-10-30T01:36:35;16.40;99.90
9223;DHT22;7557;51.698;3.942;2022-10-30T01:39:10;16.30;99.90
9223;DHT22;7557;51.698;3.942;2022-10-30T01:41:38;16.30;99.90
9223;DHT22;7557;51.698;3.942;2022-10-30T01:44:09;16.30;99.90
9223;DHT22;7557;51.698;3.942;2022-10-30T01:46:47;16.30;99.90
9223;DHT22;7557;51.698;3.942;2022-10-30T01:49:44;16.30;99.90
9223;DHT22;7557;51.698;3.942;2022-10-30T01:52:19;16.40;99.90
9223;DHT22;7557;51.698;3.942;2022-10-30T01:54:55;16.40;99.90
9223;DHT22;7557;51.698;3.942;2022-10-30T01:57:33;16.30;99.90
9223;DHT22;7557;51.698;3.942;2022-10-30T02:00:04;16.30;99.90
9223;DHT22;7557;51.698;3.942;2022-10-30T02:02:32;16.30;99.90
9223;DHT22;7557;51.698;3.942;2022-10-30T02:05:01;16.30;99.90
9223;DHT22;7557;51.698;3.942;2022-10-30T02:07:29;16.20;99.90
9223;DHT22;7557;51.698;3.942;2022-10-30T02:09:57;16.20;99.90
9223;DHT22;7557;51.698;3.942;2022-10-30T02:12:25;16.20;99.90
9223;DHT22;7557;51.698;3.942;2022-10-30T02:14:56;16.30;99.90
9223;DHT22;7557;51.698;3.942;2022-10-30T02:17:25;16.20;99.90
9223;DHT22;7557;51.698;3.942;2022-10-30T02:19:53;16.20;99.90
9223;DHT22;7557;51.698;3.942;2022-10-30T02:22:25;16.20;99.90
9223;DHT22;7557;51.698;3.942;2022-10-30T02:24:53;16.20;99.90
9223;DHT22;7557;51.698;3.942;2022-10-30T02:27:20;16.20;99.90
9223;DHT22;7557;51.698;3.942;2022-10-30T02:29:48;16.10;99.90
9223;DHT22;7557;51.698;3.942;2022-10-30T02:32:15;16.20;99.90
9223;DHT22;7557;51.698;3.942;2022-10-30T02:34:43;16.20;99.90
9223;DHT22;7557;51.698;3.942;2022-10-30T02:37:11;16.20;99.90
9223;DHT22;7557;51.698;3.942;2022-10-30T02:39:40;16.20;99.90
9223;DHT22;7557;51.698;3.942;2022-10-30T02:42:08;16.30;99.90
9223;DHT22;7557;51.698;3.942;2022-10-30T02:44:35;16.30;99.90
9223;DHT22;7557;51.698;3.942;2022-10-30T02:47:02;16.30;99.90
9223;DHT22;7557;51.698;3.942;2022-10-30T02:49:30;16.30;99.90
9223;DHT22;7557;51.698;3.942;2022-10-30T02:51:58;16.30;99.90
9223;DHT22;7557;51.698;3.942;2022-10-30T02:54:25;16.20;99.90
9223;DHT22;7557;51.698;3.942;2022-10-30T02:56:54;16.20;99.90
9223;DHT22;7557;51.698;3.942;2022-10-30T02:59:21;16.20;99.90
9223;DHT22;7557;51.698;3.942;2022-10-30T03:01:49;16.20;99.90
9223;DHT22;7557;51.698;3.942;2022-10-30T03:04:16;16.20;99.90
9223;DHT22;7557;51.698;3.942;2022-10-30T03:06:44;16.20;99.90
9223;DHT22;7557;51.698;3.942;2022-10-30T03:09:11;16.20;99.90
9223;DHT22;7557;51.698;3.942;2022-10-30T03:11:38;16.10;99.90
9223;DHT22;7557;51.698;3.942;2022-10-30T03:14:07;16.10;99.90
9223;DHT22;7557;51.698;3.942;2022-10-30T03:16:35;16.20;99.90
9223;DHT22;7557;51.698;3.942;2022-10-30T03:19:05;16.20;99.90
9223;DHT22;7557;51.698;3.942;2022-10-30T03:21:32;16.30;99.90
9223;DHT22;7557;51.698;3.942;2022-10-30T03:24:00;16.30;99.90
9223;DHT22;7557;51.698;3.942;2022-10-30T03:26:27;16.40;99.90
9223;DHT22;7557;51.698;3.942;2022-10-30T03:28:54;16.50;99.90
9223;DHT22;7557;51.698;3.942;2022-10-30T03:31:23;16.50;99.90
9223;DHT22;7557;51.698;3.942;2022-10-30T03:33:51;16.50;99.90
9223;DHT22;7557;51.698;3.942;2022-10-30T03:36:18;16.50;99.90
9223;DHT22;7557;51.698;3.942;2022-10-30T03:38:45;16.50;99.90
9223;DHT22;7557;51.698;3.942;2022-10-30T03:41:13;16.50;99.90
9223;DHT22;7557;51.698;3.942;2022-10-30T03:43:40;16.50;99.90
9223;DHT22;7557;51.698;3.942;2022-10-30T03:46:08;16.50;99.90
9223;DHT22;7557;51.698;3.942;2022-10-30T03:48:37;16.50;99.90
9223;DHT22;7557;51.698;3.942;2022-10-30T03:51:05;16.40;99.90
9223;DHT22;7557;51.698;3.942;2022-10-30T03:53:33;16.40;99.90
9223;DHT22;7557;51.698;3.942;2022-10-30T03:56:02;16.40;99.90
9223;DHT22;7557;51.698;3.942;2022-10-30T03:58:30;16.30;99.90
9223;DHT22;7557;51.698;3.942;2022-10-30T04:01:00;16.20;99.90
9223;DHT22;7557;51.698;3.942;2022-10-30T04:03:27;16.10;99.90
9223;DHT22;7557;51.698;3.942;2022-10-30T04:05:56;16.00;99.90
9223;DHT22;7557;51.698;3.942;2022-10-30T04:08:24;16.00;99.90
9223;DHT22;7557;51.698;3.942;2022-10-30T04:10:51;16.00;99.90
9223;DHT22;7557;51.698;3.942;2022-10-30T04:13:19;16.10;99.90
9223;DHT22;7557;51.698;3.942;2022-10-30T04:15:47;16.10;99.90
9223;DHT22;7557;51.698;3.942;2022-10-30T04:18:15;16.10;99.90
9223;DHT22;7557;51.698;3.942;2022-10-30T04:20:43;16.00;99.90
9223;DHT22;7557;51.698;3.942;2022-10-30T04:23:15;16.10;99.90
9223;DHT22;7557;51.698;3.942;2022-10-30T04:25:43;16.00;99.90
9223;DHT22;7557;51.698;3.942;2022-10-30T04:28:10;16.00;99.90
9223;DHT22;7557;51.698;3.942;2022-10-30T04:30:38;16.10;99.90
9223;DHT22;7557;51.698;3.942;2022-10-30T04:33:09;16.10;99.90
9223;DHT22;7557;51.698;3.942;2022-10-30T04:35:37;16.20;99.90
9223;DHT22;7557;51.698;3.942;2022-10-30T04:38:06;16.20;99.90
9223;DHT22;7557;51.698;3.942;2022-10-30T04:40:37;16.20;99.90
9223;DHT22;7557;51.698;3.942;2022-10-30T04:43:05;16.20;99.90
9223;DHT22;7557;51.698;3.942;2022-10-30T04:45:32;16.10;99.90
9223;DHT22;7557;51.698;3.942;2022-10-30T04:48:01;16.10;99.90
9223;DHT22;7557;51.698;3.942;2022-10-30T04:50:29;16.10;99.90
9223;DHT22;7557;51.698;3.942;2022-10-30T04:53:00;16.20;99.90
9223;DHT22;7557;51.698;3.942;2022-10-30T04:55:29;16.20;99.90
9223;DHT22;7557;51.698;3.942;2022-10-30T04:57:58;16.30;99.90
9223;DHT22;7557;51.698;3.942;2022-10-30T05:00:28;16.30;99.90
9223;DHT22;7557;51.698;3.942;2022-10-30T05:02:57;16.30;99.90
9223;DHT22;7557;51.698;3.942;2022-10-30T05:05:25;16.30;99.90
9223;DHT22;7557;51.698;3.942;2022-10-30T05:07:53;16.30;99.90
9223;DHT22;7557;51.698;3.942;2022-10-30T05:10:20;16.20;99.90
9223;DHT22;7557;51.698;3.942;2022-10-30T05:12:49;16.20;99.90
9223;DHT22;7557;51.698;3.942;2022-10-30T05:15:19;16.30;99.90
9223;DHT22;7557;51.698;3.942;2022-10-30T05:17:50;16.30;99.90
9223;DHT22;7557;51.698;3.942;2022-10-30T05:20:18;16.30;99.90
9223;DHT22;7557;51.698;3.942;2022-10-30T05:22:52;16.30;99.90
9223;DHT22;7557;51.698;3.942;2022-10-30T05:25:19;16.30;99.90
9223;DHT22;7557;51.698;3.942;2022-10-30T05:27:47;16.20;99.90
9223;DHT22;7557;51.698;3.942;2022-10-30T05:30:14;16.20;99.90
9223;DHT22;7557;51.698;3.942;2022-10-30T05:32:43;16.20;99.90
9223;DHT22;7557;51.698;3.942;2022-10-30T05:35:10;16.10;99.90
9223;DHT22;7557;51.698;3.942;2022-10-30T05:37:38;16.10;99.90
9223;DHT22;7557;51.698;3.942;2022-10-30T05:40:06;16.10;99.90
9223;DHT22;7557;51.698;3.942;2022-10-30T05:42:34;16.10;99.90
9223;DHT22;7557;51.698;3.942;2022-10-30T05:45:01;16.20;99.90
9223;DHT22;7557;51.698;3.942;2022-10-30T05:47:29;16.10;99.90
9223;DHT22;7557;51.698;3.942;2022-10-30T05:49:58;16.10;99.90
9223;DHT22;7557;51.698;3.942;2022-10-30T05:52:25;16.20;99.90
9223;DHT22;7557;51.698;3.942;2022-10-30T05:54:53;16.20;99.90
9223;DHT22;7557;51.698;3.942;2022-10-30T05:57:21;16.10;99.90
9223;DHT22;7557;51.698;3.942;2022-10-30T05:59:48;16.10;99.90
9223;DHT22;7557;51.698;3.942;2022-10-30T06:02:16;16.00;99.90
9223;DHT22;7557;51.698;3.942;2022-10-30T06:04:43;16.00;99.90
9223;DHT22;7557;51.698;3.942;2022-10-30T06:07:12;16.00;99.90
9223;DHT22;7557;51.698;3.942;2022-10-30T06:09:40;15.90;99.90
9223;DHT22;7557;51.698;3.942;2022-10-30T06:12:07;15.90;99.90
9223;DHT22;7557;51.698;3.942;2022-10-30T06:14:35;15.90;99.90
9223;DHT22;7557;51.698;3.942;2022-10-30T06:17:02;15.90;99.90
9223;DHT22;7557;51.698;3.942;2022-10-30T06:19:30;15.90;99.90
9223;DHT22;7557;51.698;3.942;2022-10-30T06:21:57;16.00;99.90
9223;DHT22;7557;51.698;3.942;2022-10-30T06:24:26;16.00;99.90
9223;DHT22;7557;51.698;3.942;2022-10-30T06:26:53;16.00;99.90
9223;DHT22;7557;51.698;3.942;2022-10-30T06:29:21;16.00;99.90
9223;DHT22;7557;51.698;3.942;2022-10-30T06:31:48;16.10;99.90
9223;DHT22;7557;51.698;3.942;2022-10-30T06:34:15;16.10;99.90
9223;DHT22;7557;51.698;3.942;2022-10-30T06:36:42;16.10;99.90
9223;DHT22;7557;51.698;3.942;2022-10-30T06:39:10;16.00;99.90
9223;DHT22;7557;51.698;3.942;2022-10-30T06:41:39;16.00;99.90
9223;DHT22;7557;51.698;3.942;2022-10-30T06:44:06;15.90;99.90
9223;DHT22;7557;51.698;3.942;2022-10-30T06:46:34;15.90;99.90
9223;DHT22;7557;51.698;3.942;2022-10-30T06:49:01;15.90;99.90
9223;DHT22;7557;51.698;3.942;2022-10-30T06:51:28;15.90;99.90
9223;DHT22;7557;51.698;3.942;2022-10-30T06:53:57;16.00;99.90
9223;DHT22;7557;51.698;3.942;2022-10-30T06:56:24;16.00;99.90
9223;DHT22;7557;51.698;3.942;2022-10-30T06:58:53;16.00;99.90
9223;DHT22;7557;51.698;3.942;2022-10-30T07:01:20;16.00;99.90
9223;DHT22;7557;51.698;3.942;2022-10-30T07:03:48;15.90;99.90
9223;DHT22;7557;51.698;3.942;2022-10-30T07:06:15;15.90;99.90
9223;DHT22;7557;51.698;3.942;2022-10-30T07:08:42;15.80;99.90
9223;DHT22;7557;51.698;3.942;2022-10-30T07:11:10;15.80;99.90
9223;DHT22;7557;51.698;3.942;2022-10-30T07:13:37;15.80;99.90
9223;DHT22;7557;51.698;3.942;2022-10-30T07:16:07;15.80;99.90
9223;DHT22;7557;51.698;3.942;2022-10-30T07:18:34;15.90;99.90
9223;DHT22;7557;51.698;3.942;2022-10-30T07:21:01;16.00;99.90
9223;DHT22;7557;51.698;3.942;2022-10-30T07:23:29;16.00;99.90
9223;DHT22;7557;51.698;3.942;2022-10-30T07:25:57;16.10;99.90
9223;DHT22;7557;51.698;3.942;2022-10-30T07:28:25;16.10;99.90
9223;DHT22;7557;51.698;3.942;2022-10-30T07:30:53;16.20;99.90
9223;DHT22;7557;51.698;3.942;2022-10-30T07:33:21;16.30;99.90
9223;DHT22;7557;51.698;3.942;2022-10-30T07:35:49;16.40;99.90
9223;DHT22;7557;51.698;3.942;2022-10-30T07:38:16;16.40;99.90
9223;DHT22;7557;51.698;3.942;2022-10-30T07:40:50;16.50;99.90
9223;DHT22;7557;51.698;3.942;2022-10-30T07:43:17;16.50;99.90
9223;DHT22;7557;51.698;3.942;2022-10-30T07:45:45;16.50;99.90
9223;DHT22;7557;51.698;3.942;2022-10-30T07:48:13;16.50;99.90
9223;DHT22;7557;51.698;3.942;2022-10-30T07:50:42;16.60;99.90
9223;DHT22;7557;51.698;3.942;2022-10-30T07:53:09;16.60;99.90
9223;DHT22;7557;51.698;3.942;2022-10-30T07:55:41;16.70;99.90
9223;DHT22;7557;51.698;3.942;2022-10-30T07:58:08;16.70;99.90
9223;DHT22;7557;51.698;3.942;2022-10-30T08:00:36;16.70;99.90
9223;DHT22;7557;51.698;3.942;2022-10-30T08:03:03;16.70;99.90
9223;DHT22;7557;51.698;3.942;2022-10-30T08:05:31;16.70;99.90
9223;DHT22;7557;51.698;3.942;2022-10-30T08:08:01;16.70;99.90
9223;DHT22;7557;51.698;3.942;2022-10-30T08:10:28;16.70;99.90
9223;DHT22;7557;51.698;3.942;2022-10-30T08:12:55;16.70;99.90
9223;DHT22;7557;51.698;3.942;2022-10-30T08:15:23;16.70;99.90
9223;DHT22;7557;51.698;3.942;2022-10-30T08:17:50;16.80;99.90
9223;DHT22;7557;51.698;3.942;2022-10-30T08:20:19;16.80;99.90
9223;DHT22;7557;51.698;3.942;2022-10-30T08:22:47;16.90;99.90
9223;DHT22;7557;51.698;3.942;2022-10-30T08:25:18;16.90;99.90
9223;DHT22;7557;51.698;3.942;2022-10-30T08:27:51;16.90;99.90
9223;DHT22;7557;51.698;3.942;2022-10-30T08:30:18;17.00;99.90
9223;DHT22;7557;51.698;3.942;2022-10-30T08:32:46;17.00;99.90
9223;DHT22;7557;51.698;3.942;2022-10-30T08:35:13;17.10;99.90
9223;DHT22;7557;51.698;3.942;2022-10-30T08:37:41;17.20;99.90
9223;DHT22;7557;51.698;3.942;2022-10-30T08:40:10;17.30;99.90
9223;DHT22;7557;51.698;3.942;2022-10-30T08:42:39;17.30;99.90
9223;DHT22;7557;51.698;3.942;2022-10-30T08:45:07;17.40;99.90
9223;DHT22;7557;51.698;3.942;2022-10-30T08:47:34;17.50;99.90
9223;DHT22;7557;51.698;3.942;2022-10-30T08:50:02;17.60;99.90
9223;DHT22;7557;51.698;3.942;2022-10-30T08:52:29;17.70;99.90
9223;DHT22;7557;51.698;3.942;2022-10-30T08:54:56;17.90;99.90
9223;DHT22;7557;51.698;3.942;2022-10-30T08:57:24;18.00;99.90
9223;DHT22;7557;51.698;3.942;2022-10-30T08:59:53;18.30;99.90
9223;DHT22;7557;51.698;3.942;2022-10-30T09:02:21;18.40;99.90
9223;DHT22;7557;51.698;3.942;2022-10-30T09:04:48;18.40;99.90
9223;DHT22;7557;51.698;3.942;2022-10-30T09:07:15;18.50;99.90
9223;DHT22;7557;51.698;3.942;2022-10-30T09:09:43;18.60;99.90
9223;DHT22;7557;51.698;3.942;2022-10-30T09:12:10;18.60;99.90
9223;DHT22;7557;51.698;3.942;2022-10-30T09:14:38;18.70;99.90
9223;DHT22;7557;51.698;3.942;2022-10-30T09:17:07;18.70;99.90
9223;DHT22;7557;51.698;3.942;2022-10-30T09:19:34;18.80;99.90
9223;DHT22;7557;51.698;3.942;2022-10-30T09:22:02;18.80;99.90
9223;DHT22;7557;51.698;3.942;2022-10-30T09:24:30;18.80;99.90
9223;DHT22;7557;51.698;3.942;2022-10-30T09:26:57;18.90;99.90
9223;DHT22;7557;51.698;3.942;2022-10-30T09:29:24;18.90;99.90
9223;DHT22;7557;51.698;3.942;2022-10-30T09:31:52;18.90;99.90
9223;DHT22;7557;51.698;3.942;2022-10-30T09:34:21;19.00;99.90
9223;DHT22;7557;51.698;3.942;2022-10-30T09:36:48;19.00;99.90
9223;DHT22;7557;51.698;3.942;2022-10-30T09:39:16;19.10;99.90
9223;DHT22;7557;51.698;3.942;2022-10-30T09:42:04;19.10;99.90
9223;DHT22;7557;51.698;3.942;2022-10-30T09:44:42;19.20;99.90
9223;DHT22;7557;51.698;3.942;2022-10-30T09:47:21;19.20;99.90
9223;DHT22;7557;51.698;3.942;2022-10-30T09:50:02;19.30;99.90
9223;DHT22;7557;51.698;3.942;2022-10-30T09:52:34;19.30;99.90
9223;DHT22;7557;51.698;3.942;2022-10-30T09:55:28;19.30;99.90
9223;DHT22;7557;51.698;3.942;2022-10-30T09:58:15;19.40;99.90
9223;DHT22;7557;51.698;3.942;2022-10-30T10:00:47;19.50;99.90
9223;DHT22;7557;51.698;3.942;2022-10-30T10:03:32;19.60;99.90
9223;DHT22;7557;51.698;3.942;2022-10-30T10:06:03;19.80;99.90
9223;DHT22;7557;51.698;3.942;2022-10-30T10:08:40;19.80;99.90
9223;DHT22;7557;51.698;3.942;2022-10-30T10:11:12;19.90;99.90
9223;DHT22;7557;51.698;3.942;2022-10-30T10:13:44;19.90;99.90
9223;DHT22;7557;51.698;3.942;2022-10-30T10:16:16;20.00;99.90
9223;DHT22;7557;51.698;3.942;2022-10-30T10:18:46;20.20;99.90
9223;DHT22;7557;51.698;3.942;2022-10-30T10:21:22;20.30;99.90
9223;DHT22;7557;51.698;3.942;2022-10-30T10:23:51;20.40;99.90
9223;DHT22;7557;51.698;3.942;2022-10-30T10:26:26;20.50;99.90
9223;DHT22;7557;51.698;3.942;2022-10-30T10:29:25;20.60;99.90
9223;DHT22;7557;51.698;3.942;2022-10-30T10:32:09;20.80;99.90
9223;DHT22;7557;51.698;3.942;2022-10-30T10:34:52;20.90;99.90
9223;DHT22;7557;51.698;3.942;2022-10-30T10:37:29;21.00;99.90
9223;DHT22;7557;51.698;3.942;2022-10-30T10:40:15;21.00;99.90
9223;DHT22;7557;51.698;3.942;2022-10-30T10:42:52;21.00;99.90
9223;DHT22;7557;51.698;3.942;2022-10-30T10:45:30;21.10;99.90
9223;DHT22;7557;51.698;3.942;2022-10-30T10:48:22;21.20;99.90
9223;DHT22;7557;51.698;3.942;2022-10-30T10:50:55;21.30;99.90
9223;DHT22;7557;51.698;3.942;2022-10-30T10:53:29;21.20;99.90
9223;DHT22;7557;51.698;3.942;2022-10-30T10:56:01;21.30;99.90
9223;DHT22;7557;51.698;3.942;2022-10-30T10:58:32;21.30;99.90
9223;DHT22;7557;51.698;3.942;2022-10-30T11:01:01;21.40;99.90
9223;DHT22;7557;51.698;3.942;2022-10-30T11:03:41;21.50;99.90
9223;DHT22;7557;51.698;3.942;2022-10-30T11:06:18;21.50;99.90
9223;DHT22;7557;51.698;3.942;2022-10-30T11:08:48;21.50;99.90
9223;DHT22;7557;51.698;3.942;2022-10-30T11:11:18;21.50;99.90
9223;DHT22;7557;51.698;3.942;2022-10-30T11:13:47;21.60;99.90
9223;DHT22;7557;51.698;3.942;2022-10-30T11:16:23;21.60;99.90
9223;DHT22;7557;51.698;3.942;2022-10-30T11:18:56;21.60;99.90
9223;DHT22;7557;51.698;3.942;2022-10-30T11:21:25;21.60;99.90
9223;DHT22;7557;51.698;3.942;2022-10-30T11:23:54;21.40;99.90
9223;DHT22;7557;51.698;3.942;2022-10-30T11:26:30;21.40;99.90
9223;DHT22;7557;51.698;3.942;2022-10-30T11:29:02;21.30;99.90
9223;DHT22;7557;51.698;3.942;2022-10-30T11:31:32;21.10;99.90
9223;DHT22;7557;51.698;3.942;2022-10-30T11:34:23;21.10;99.90
9223;DHT22;7557;51.698;3.942;2022-10-30T11:36:52;21.10;99.90
9223;DHT22;7557;51.698;3.942;2022-10-30T11:39:22;21.10;99.90
9223;DHT22;7557;51.698;3.942;2022-10-30T11:41:56;21.00;99.90
9223;DHT22;7557;51.698;3.942;2022-10-30T11:44:28;20.90;99.90
9223;DHT22;7557;51.698;3.942;2022-10-30T11:46:56;20.80;99.90
9223;DHT22;7557;51.698;3.942;2022-10-30T11:49:40;20.80;99.90
9223;DHT22;7557;51.698;3.942;2022-10-30T11:52:10;20.70;99.90
9223;DHT22;7557;51.698;3.942;2022-10-30T11:54:42;20.70;99.90
9223;DHT22;7557;51.698;3.942;2022-10-30T11:57:30;20.70;99.90
9223;DHT22;7557;51.698;3.942;2022-10-30T11:59:58;20.80;99.90
9223;DHT22;7557;51.698;3.942;2022-10-30T12:02:28;20.80;99.90
9223;DHT22;7557;51.698;3.942;2022-10-30T12:05:00;20.70;99.90
9223;DHT22;7557;51.698;3.942;2022-10-30T12:07:30;20.70;99.90
9223;DHT22;7557;51.698;3.942;2022-10-30T12:09:59;20.60;99.90
9223;DHT22;7557;51.698;3.942;2022-10-30T12:12:31;20.50;99.90
9223;DHT22;7557;51.698;3.942;2022-10-30T12:15:08;20.50;99.90
9223;DHT22;7557;51.698;3.942;2022-10-30T12:17:37;20.40;99.90
9223;DHT22;7557;51.698;3.942;2022-10-30T12:20:11;20.40;99.90
9223;DHT22;7557;51.698;3.942;2022-10-30T12:22:39;20.30;99.90
9223;DHT22;7557;51.698;3.942;2022-10-30T12:25:19;20.30;99.90
9223;DHT22;7557;51.698;3.942;2022-10-30T12:27:48;20.30;99.90
9223;DHT22;7557;51.698;3.942;2022-10-30T12:30:18;20.20;99.90
9223;DHT22;7557;51.698;3.942;2022-10-30T12:32:50;20.20;99.90
9223;DHT22;7557;51.698;3.942;2022-10-30T12:35:41;20.20;99.90
9223;DHT22;7557;51.698;3.942;2022-10-30T12:38:14;20.20;99.90
9223;DHT22;7557;51.698;3.942;2022-10-30T12:40:53;20.10;99.90
9223;DHT22;7557;51.698;3.942;2022-10-30T12:43:25;20.10;99.90
9223;DHT22;7557;51.698;3.942;2022-10-30T12:45:56;20.10;99.90
9223;DHT22;7557;51.698;3.942;2022-10-30T12:48:30;20.10;99.90
9223;DHT22;7557;51.698;3.942;2022-10-30T12:51:10;20.10;99.90
9223;DHT22;7557;51.698;3.942;2022-10-30T12:53:44;20.10;99.90
9223;DHT22;7557;51.698;3.942;2022-10-30T12:56:18;20.20;99.90
9223;DHT22;7557;51.698;3.942;2022-10-30T12:58:51;20.20;99.90
9223;DHT22;7557;51.698;3.942;2022-10-30T13:01:23;20.20;99.90
9223;DHT22;7557;51.698;3.942;2022-10-30T13:03:56;20.30;99.90
9223;DHT22;7557;51.698;3.942;2022-10-30T13:06:27;20.30;99.90
9223;DHT22;7557;51.698;3.942;2022-10-30T13:09:06;20.30;99.90
9223;DHT22;7557;51.698;3.942;2022-10-30T13:11:41;20.20;99.90
9223;DHT22;7557;51.698;3.942;2022-10-30T13:14:15;20.30;99.90
9223;DHT22;7557;51.698;3.942;2022-10-30T13:16:43;20.30;99.90
9223;DHT22;7557;51.698;3.942;2022-10-30T13:19:11;20.20;99.90
9223;DHT22;7557;51.698;3.942;2022-10-30T13:21:45;20.20;99.90
9223;DHT22;7557;51.698;3.942;2022-10-30T13:24:19;20.20;99.90
9223;DHT22;7557;51.698;3.942;2022-10-30T13:26:53;20.20;99.90
9223;DHT22;7557;51.698;3.942;2022-10-30T13:29:27;20.20;99.90
9223;DHT22;7557;51.698;3.942;2022-10-30T13:32:10;20.10;99.90
9223;DHT22;7557;51.698;3.942;2022-10-30T13:34:46;20.10;99.90
9223;DHT22;7557;51.698;3.942;2022-10-30T13:37:20;20.00;99.90
9223;DHT22;7557;51.698;3.942;2022-10-30T13:40:00;19.80;99.90
9223;DHT22;7557;51.698;3.942;2022-10-30T13:42:40;19.80;99.90
9223;DHT22;7557;51.698;3.942;2022-10-30T13:45:25;19.80;99.90
9223;DHT22;7557;51.698;3.942;2022-10-30T13:48:02;19.70;99.90
9223;DHT22;7557;51.698;3.942;2022-10-30T13:50:42;19.60;99.90
9223;DHT22;7557;51.698;3.942;2022-10-30T13:53:15;19.50;99.90
9223;DHT22;7557;51.698;3.942;2022-10-30T13:55:45;19.50;99.90
9223;DHT22;7557;51.698;3.942;2022-10-30T13:58:21;19.50;99.90
9223;DHT22;7557;51.698;3.942;2022-10-30T14:00:54;19.50;99.90
9223;DHT22;7557;51.698;3.942;2022-10-30T14:03:37;19.50;99.90
9223;DHT22;7557;51.698;3.942;2022-10-30T14:06:14;19.50;99.90
9223;DHT22;7557;51.698;3.942;2022-10-30T14:08:49;19.40;99.90
9223;DHT22;7557;51.698;3.942;2022-10-30T14:11:18;19.40;99.90
9223;DHT22;7557;51.698;3.942;2022-10-30T14:13:52;19.40;99.90
9223;DHT22;7557;51.698;3.942;2022-10-30T14:16:33;19.40;99.90
9223;DHT22;7557;51.698;3.942;2022-10-30T14:19:01;19.50;99.90
9223;DHT22;7557;51.698;3.942;2022-10-30T14:21:43;19.50;99.90
9223;DHT22;7557;51.698;3.942;2022-10-30T14:24:19;19.50;99.90
9223;DHT22;7557;51.698;3.942;2022-10-30T14:26:49;19.50;99.90
9223;DHT22;7557;51.698;3.942;2022-10-30T14:29:40;19.50;99.90
9223;DHT22;7557;51.698;3.942;2022-10-30T14:32:34;19.50;99.90
9223;DHT22;7557;51.698;3.942;2022-10-30T14:35:35;19.50;99.90
9223;DHT22;7557;51.698;3.942;2022-10-30T14:38:33;19.40;99.90
9223;DHT22;7557;51.698;3.942;2022-10-30T14:44:17;19.40;99.90
9223;DHT22;7557;51.698;3.942;2022-10-30T14:47:02;19.40;99.90
9223;DHT22;7557;51.698;3.942;2022-10-30T14:49:44;19.40;99.90
9223;DHT22;7557;51.698;3.942;2022-10-30T14:52:28;19.40;99.90
9223;DHT22;7557;51.698;3.942;2022-10-30T14:55:17;19.30;99.90
9223;DHT22;7557;51.698;3.942;2022-10-30T14:57:51;19.30;99.90
9223;DHT22;7557;51.698;3.942;2022-10-30T15:00:41;19.30;99.90
9223;DHT22;7557;51.698;3.942;2022-10-30T15:06:19;19.30;99.90
9223;DHT22;7557;51.698;3.942;2022-10-30T15:09:06;19.30;99.90
9223;DHT22;7557;51.698;3.942;2022-10-30T15:11:45;19.30;99.90
9223;DHT22;7557;51.698;3.942;2022-10-30T15:14:21;19.20;99.90
9223;DHT22;7557;51.698;3.942;2022-10-30T15:16:50;19.10;99.90
9223;DHT22;7557;51.698;3.942;2022-10-30T15:19:22;19.00;99.90
9223;DHT22;7557;51.698;3.942;2022-10-30T15:21:52;19.00;99.90
9223;DHT22;7557;51.698;3.942;2022-10-30T15:24:21;18.90;99.90
9223;DHT22;7557;51.698;3.942;2022-10-30T15:26:50;18.90;99.90
9223;DHT22;7557;51.698;3.942;2022-10-30T15:29:20;18.80;99.90
9223;DHT22;7557;51.698;3.942;2022-10-30T15:31:57;18.80;99.90
9223;DHT22;7557;51.698;3.942;2022-10-30T15:34:27;18.80;99.90
9223;DHT22;7557;51.698;3.942;2022-10-30T15:36:55;18.80;99.90
9223;DHT22;7557;51.698;3.942;2022-10-30T15:39:23;18.80;99.90
9223;DHT22;7557;51.698;3.942;2022-10-30T15:41:53;18.80;99.90
9223;DHT22;7557;51.698;3.942;2022-10-30T15:44:23;18.80;99.90
9223;DHT22;7557;51.698;3.942;2022-10-30T15:46:53;18.80;99.90
9223;DHT22;7557;51.698;3.942;2022-10-30T15:49:29;18.80;99.90
9223;DHT22;7557;51.698;3.942;2022-10-30T15:51:59;18.80;99.90
9223;DHT22;7557;51.698;3.942;2022-10-30T15:54:28;18.80;99.90
9223;DHT22;7557;51.698;3.942;2022-10-30T15:56:58;18.80;99.90
9223;DHT22;7557;51.698;3.942;2022-10-30T15:59:28;18.70;99.90
9223;DHT22;7557;51.698;3.942;2022-10-30T16:01:56;18.80;99.90
9223;DHT22;7557;51.698;3.942;2022-10-30T16:04:25;18.70;99.90
9223;DHT22;7557;51.698;3.942;2022-10-30T16:06:57;18.70;99.90
9223;DHT22;7557;51.698;3.942;2022-10-30T16:09:26;18.60;99.90
9223;DHT22;7557;51.698;3.942;2022-10-30T16:11:56;18.60;99.90
9223;DHT22;7557;51.698;3.942;2022-10-30T16:14:26;18.60;99.90
9223;DHT22;7557;51.698;3.942;2022-10-30T16:16:54;18.60;99.90
9223;DHT22;7557;51.698;3.942;2022-10-30T16:19:26;18.50;99.90
9223;DHT22;7557;51.698;3.942;2022-10-30T16:21:57;18.40;99.90
9223;DHT22;7557;51.698;3.942;2022-10-30T16:24:31;18.30;99.90
9223;DHT22;7557;51.698;3.942;2022-10-30T16:27:03;18.20;99.90
9223;DHT22;7557;51.698;3.942;2022-10-30T16:29:31;18.20;99.90
9223;DHT22;7557;51.698;3.942;2022-10-30T16:32:00;18.20;99.90
9223;DHT22;7557;51.698;3.942;2022-10-30T16:34:29;18.20;99.90